Portage Glacier, AK

2:29 AM AKDT on April 27, 2015 (GMT -0800)
Portage Glacier | Change Station
CLOSE
Current Station
Airport
Location: Portage Glacier,
Elevation: 102 ft
Nearby Weather Stations

Elev 102 ft 60.78 °N, 148.84 °W | Updated 36 minutes ago

Light Rain
Light Rain
44 °F
Feels Like 40 °F
N
8
Wind Variable Wind from East

Today
High -- | Low -- °F
--% Chance of Precip.
Yesterday
High -- | Low -- °F
Precip. -- in
6:00 AM 9:47 PM
Waxing Gibbous, 64% visible
Pressure 29.65 in
Visibility 10.0 miles
Clouds Overcast 3200 ft
Windchill 40 °F
Dew Point 37 °F
Humidity 76%
Rainfall 0.00 in
Snow Depth 68 in
UV 0 out of 12
Pollen Not available.
Air Quality Not available.
Flu Activity Sporadic
METAR PATO 270953Z AUTO 09007KT 060V140 10SM -RA OVC032 07/03 A2964 RMK AO2 RAB48 SLP038 P0000 T00670028 TSNO

More Conditions Fewer Conditions

Pressure 29.65 in
Visibility 10.0 miles
Clouds Overcast 3200 ft
Windchill 40 °F
Dew Point 37 °F
Humidity 76%
Rainfall 0.00 in
Snow Depth 68 in
UV 0 out of 12
Pollen Not available.
Air Quality Not available.
Flu Activity Sporadic
METAR PATO 270953Z AUTO 09007KT 060V140 10SM -RA OVC032 07/03 A2964 RMK AO2 RAB48 SLP038 P0000 T00670028 TSNO

More Conditions Fewer Conditions

10-Day Weather Forecast

Almanac

Astronomy

Apr. 27, 2015 Rise Set
Actual Time 6:00 AM AKDT 9:47 PM AKDT
Civil Twilight 5:07 AM AKDT 10:40 PM AKDT
Nautical Twilight 3:47 AM AKDT 12:03 AM AKDT
Astronomical Twilight 2:25 AM AKDT Sun does not rise
Moon 2:29 PM AKDT 4:25 AM AKDT
Length of Visible Light 17h 33m
Length of Day
15h 46m
Tomorrow will be 5m 29s longer.
Waxing Gibbous, 64% of the Moon is Illuminated
Today
Waxing Gibbous
May 3
Full
May 11
Last Quarter
May 18
New
May 25
First Quarter

Today's Extremes

State Highs State Lows

Community

WunderPhotos

Upload Photos

1,817,278 photos uploaded!

Nearby

Snow Depth

Station Depth Elevation
Turnagain Pass 68 in 1880 ft
Grandview 30 in 1100 ft
Summit Creek 12 in 1400 ft
Indian Pass 53 in 2300 ft
Moraine 0 in 2100 ft

Earthquake Activity

City Distance Mag. Time & Date
No recent earthquake activity has been reported nearby.
Minimum magnitude displayed is 2.5.

Coastal Water Temperatures

Place Temperature
No Stations Reporting

Nearby Weather Stations